sensor_id;sensor_type;location;lat;lon;timestamp;temperature;humidity
22471;DHT22;11402;51.374;6.594;2022-08-19T00:01:48;19.00;99.90
22471;DHT22;11402;51.374;6.594;2022-08-19T00:04:17;19.00;99.90
22471;DHT22;11402;51.374;6.594;2022-08-19T00:06:47;19.10;99.90
22471;DHT22;11402;51.374;6.594;2022-08-19T00:09:16;19.20;99.90
22471;DHT22;11402;51.374;6.594;2022-08-19T00:11:43;19.00;99.90
22471;DHT22;11402;51.374;6.594;2022-08-19T00:14:11;19.00;99.90
22471;DHT22;11402;51.374;6.594;2022-08-19T00:16:38;18.90;99.90
22471;DHT22;11402;51.374;6.594;2022-08-19T00:19:05;19.00;99.90
22471;DHT22;11402;51.374;6.594;2022-08-19T00:21:30;19.10;99.90
22471;DHT22;11402;51.374;6.594;2022-08-19T00:23:57;19.00;99.90
22471;DHT22;11402;51.374;6.594;2022-08-19T00:26:24;19.00;99.90
22471;DHT22;11402;51.374;6.594;2022-08-19T00:28:50;18.90;99.90
22471;DHT22;11402;51.374;6.594;2022-08-19T00:31:16;18.90;99.90
22471;DHT22;11402;51.374;6.594;2022-08-19T00:33:42;18.90;99.90
22471;DHT22;11402;51.374;6.594;2022-08-19T00:36:09;18.80;99.90
22471;DHT22;11402;51.374;6.594;2022-08-19T00:38:38;18.80;99.90
22471;DHT22;11402;51.374;6.594;2022-08-19T00:41:07;18.80;99.90
22471;DHT22;11402;51.374;6.594;2022-08-19T00:43:33;18.90;99.90
22471;DHT22;11402;51.374;6.594;2022-08-19T00:45:58;18.80;99.90
22471;DHT22;11402;51.374;6.594;2022-08-19T00:48:24;18.70;99.90
22471;DHT22;11402;51.374;6.594;2022-08-19T00:50:50;18.80;99.90
22471;DHT22;11402;51.374;6.594;2022-08-19T00:53:27;18.70;99.90
22471;DHT22;11402;51.374;6.594;2022-08-19T00:55:56;18.60;99.90
22471;DHT22;11402;51.374;6.594;2022-08-19T00:58:29;18.40;99.90
22471;DHT22;11402;51.374;6.594;2022-08-19T01:00:55;18.50;99.90
22471;DHT22;11402;51.374;6.594;2022-08-19T01:03:21;18.60;99.90
22471;DHT22;11402;51.374;6.594;2022-08-19T01:05:49;18.60;99.90
22471;DHT22;11402;51.374;6.594;2022-08-19T01:08:17;18.60;99.90
22471;DHT22;11402;51.374;6.594;2022-08-19T01:10:47;18.40;99.90
22471;DHT22;11402;51.374;6.594;2022-08-19T01:13:15;18.60;99.90
22471;DHT22;11402;51.374;6.594;2022-08-19T01:15:48;18.50;99.90
22471;DHT22;11402;51.374;6.594;2022-08-19T01:18:16;18.50;99.90
22471;DHT22;11402;51.374;6.594;2022-08-19T01:20:43;18.60;99.90
22471;DHT22;11402;51.374;6.594;2022-08-19T01:23:09;18.60;99.90
22471;DHT22;11402;51.374;6.594;2022-08-19T01:25:47;18.50;99.90
22471;DHT22;11402;51.374;6.594;2022-08-19T01:28:23;18.50;99.90
22471;DHT22;11402;51.374;6.594;2022-08-19T01:30:51;18.40;99.90
22471;DHT22;11402;51.374;6.594;2022-08-19T01:33:17;18.50;99.90
22471;DHT22;11402;51.374;6.594;2022-08-19T01:35:44;18.40;99.90
22471;DHT22;11402;51.374;6.594;2022-08-19T01:38:20;18.40;99.90
22471;DHT22;11402;51.374;6.594;2022-08-19T01:40:46;18.40;99.90
22471;DHT22;11402;51.374;6.594;2022-08-19T01:43:12;18.30;99.90
22471;DHT22;11402;51.374;6.594;2022-08-19T01:45:37;18.30;99.90
22471;DHT22;11402;51.374;6.594;2022-08-19T01:48:05;18.40;99.90
22471;DHT22;11402;51.374;6.594;2022-08-19T01:50:33;18.40;99.90
22471;DHT22;11402;51.374;6.594;2022-08-19T01:52:59;18.40;99.90
22471;DHT22;11402;51.374;6.594;2022-08-19T01:55:25;18.40;99.90
22471;DHT22;11402;51.374;6.594;2022-08-19T01:57:55;18.40;99.90
22471;DHT22;11402;51.374;6.594;2022-08-19T02:00:24;18.10;99.90
22471;DHT22;11402;51.374;6.594;2022-08-19T02:02:50;18.20;99.90
22471;DHT22;11402;51.374;6.594;2022-08-19T02:05:15;18.20;99.90
22471;DHT22;11402;51.374;6.594;2022-08-19T02:07:43;18.20;99.90
22471;DHT22;11402;51.374;6.594;2022-08-19T02:10:14;18.20;99.90
22471;DHT22;11402;51.374;6.594;2022-08-19T02:12:41;18.30;99.90
22471;DHT22;11402;51.374;6.594;2022-08-19T02:15:06;18.30;99.90
22471;DHT22;11402;51.374;6.594;2022-08-19T02:17:33;18.20;99.90
22471;DHT22;11402;51.374;6.594;2022-08-19T02:19:58;18.30;99.90
22471;DHT22;11402;51.374;6.594;2022-08-19T02:22:25;18.20;99.90
22471;DHT22;11402;51.374;6.594;2022-08-19T02:24:54;18.10;99.90
22471;DHT22;11402;51.374;6.594;2022-08-19T02:27:21;18.10;99.90
22471;DHT22;11402;51.374;6.594;2022-08-19T02:29:48;18.10;99.90
22471;DHT22;11402;51.374;6.594;2022-08-19T02:32:15;18.10;99.90
22471;DHT22;11402;51.374;6.594;2022-08-19T02:34:41;18.00;99.90
22471;DHT22;11402;51.374;6.594;2022-08-19T02:37:07;17.90;99.90
22471;DHT22;11402;51.374;6.594;2022-08-19T02:39:52;17.90;99.90
22471;DHT22;11402;51.374;6.594;2022-08-19T02:42:18;17.90;99.90
22471;DHT22;11402;51.374;6.594;2022-08-19T02:44:44;17.90;99.90
22471;DHT22;11402;51.374;6.594;2022-08-19T02:47:10;17.90;99.90
22471;DHT22;11402;51.374;6.594;2022-08-19T02:49:35;17.90;99.90
22471;DHT22;11402;51.374;6.594;2022-08-19T02:52:01;17.90;99.90
22471;DHT22;11402;51.374;6.594;2022-08-19T02:54:27;17.90;99.90
22471;DHT22;11402;51.374;6.594;2022-08-19T02:56:53;17.90;99.90
22471;DHT22;11402;51.374;6.594;2022-08-19T02:59:19;17.80;99.90
22471;DHT22;11402;51.374;6.594;2022-08-19T03:01:45;17.70;99.90
22471;DHT22;11402;51.374;6.594;2022-08-19T03:04:14;17.70;99.90
22471;DHT22;11402;51.374;6.594;2022-08-19T03:06:43;17.70;99.90
22471;DHT22;11402;51.374;6.594;2022-08-19T03:09:09;17.70;99.90
22471;DHT22;11402;51.374;6.594;2022-08-19T03:11:35;17.70;99.90
22471;DHT22;11402;51.374;6.594;2022-08-19T03:14:03;17.80;99.90
22471;DHT22;11402;51.374;6.594;2022-08-19T03:16:31;17.80;99.90
22471;DHT22;11402;51.374;6.594;2022-08-19T03:18:57;17.80;99.90
22471;DHT22;11402;51.374;6.594;2022-08-19T03:21:28;17.80;99.90
22471;DHT22;11402;51.374;6.594;2022-08-19T03:23:55;17.70;99.90
22471;DHT22;11402;51.374;6.594;2022-08-19T03:26:21;17.70;99.90
22471;DHT22;11402;51.374;6.594;2022-08-19T03:28:47;17.80;99.90
22471;DHT22;11402;51.374;6.594;2022-08-19T03:31:19;17.80;99.90
22471;DHT22;11402;51.374;6.594;2022-08-19T03:33:46;17.80;99.90
22471;DHT22;11402;51.374;6.594;2022-08-19T03:36:21;17.80;99.90
22471;DHT22;11402;51.374;6.594;2022-08-19T03:38:50;17.70;99.90
22471;DHT22;11402;51.374;6.594;2022-08-19T03:41:19;17.80;99.90
22471;DHT22;11402;51.374;6.594;2022-08-19T03:43:46;17.70;99.90
22471;DHT22;11402;51.374;6.594;2022-08-19T03:46:16;17.80;99.90
22471;DHT22;11402;51.374;6.594;2022-08-19T03:48:44;17.80;99.90
22471;DHT22;11402;51.374;6.594;2022-08-19T03:51:19;17.90;99.90
22471;DHT22;11402;51.374;6.594;2022-08-19T03:53:45;17.70;99.90
22471;DHT22;11402;51.374;6.594;2022-08-19T03:56:11;17.70;99.90
22471;DHT22;11402;51.374;6.594;2022-08-19T03:58:39;17.60;99.90
22471;DHT22;11402;51.374;6.594;2022-08-19T04:01:11;17.70;99.90
22471;DHT22;11402;51.374;6.594;2022-08-19T04:03:38;17.70;99.90
22471;DHT22;11402;51.374;6.594;2022-08-19T04:06:18;17.70;99.90
22471;DHT22;11402;51.374;6.594;2022-08-19T04:08:47;17.70;99.90
22471;DHT22;11402;51.374;6.594;2022-08-19T04:11:17;17.60;99.90
22471;DHT22;11402;51.374;6.594;2022-08-19T04:13:43;17.60;99.90
22471;DHT22;11402;51.374;6.594;2022-08-19T04:16:09;17.70;99.90
22471;DHT22;11402;51.374;6.594;2022-08-19T04:18:37;17.60;99.90
22471;DHT22;11402;51.374;6.594;2022-08-19T04:21:03;17.60;99.90
22471;DHT22;11402;51.374;6.594;2022-08-19T04:23:29;17.70;99.90
22471;DHT22;11402;51.374;6.594;2022-08-19T04:25:56;17.90;99.90
22471;DHT22;11402;51.374;6.594;2022-08-19T04:28:25;17.90;99.90
22471;DHT22;11402;51.374;6.594;2022-08-19T04:30:52;17.80;99.90
22471;DHT22;11402;51.374;6.594;2022-08-19T04:33:20;17.80;99.90
22471;DHT22;11402;51.374;6.594;2022-08-19T04:35:48;17.60;99.90
22471;DHT22;11402;51.374;6.594;2022-08-19T04:38:16;17.70;99.90
22471;DHT22;11402;51.374;6.594;2022-08-19T04:40:44;17.70;99.90
22471;DHT22;11402;51.374;6.594;2022-08-19T04:43:31;17.70;99.90
22471;DHT22;11402;51.374;6.594;2022-08-19T04:45:57;17.80;99.90
22471;DHT22;11402;51.374;6.594;2022-08-19T04:48:23;17.80;99.90
22471;DHT22;11402;51.374;6.594;2022-08-19T04:50:53;17.90;99.90
22471;DHT22;11402;51.374;6.594;2022-08-19T04:53:30;17.90;99.90
22471;DHT22;11402;51.374;6.594;2022-08-19T04:55:56;17.80;99.90
22471;DHT22;11402;51.374;6.594;2022-08-19T04:58:24;17.80;99.90
22471;DHT22;11402;51.374;6.594;2022-08-19T05:00:50;17.90;99.90
22471;DHT22;11402;51.374;6.594;2022-08-19T05:03:15;17.80;99.90
22471;DHT22;11402;51.374;6.594;2022-08-19T05:05:46;17.70;99.90
22471;DHT22;11402;51.374;6.594;2022-08-19T05:08:15;17.80;99.90
22471;DHT22;11402;51.374;6.594;2022-08-19T05:10:46;17.80;99.90
22471;DHT22;11402;51.374;6.594;2022-08-19T05:13:13;17.80;99.90
22471;DHT22;11402;51.374;6.594;2022-08-19T05:15:40;17.80;99.90
22471;DHT22;11402;51.374;6.594;2022-08-19T05:18:06;17.80;99.90
22471;DHT22;11402;51.374;6.594;2022-08-19T05:20:50;18.00;99.90
22471;DHT22;11402;51.374;6.594;2022-08-19T05:23:34;18.10;99.90
22471;DHT22;11402;51.374;6.594;2022-08-19T05:26:00;18.40;99.90
22471;DHT22;11402;51.374;6.594;2022-08-19T05:28:26;18.50;99.90
22471;DHT22;11402;51.374;6.594;2022-08-19T05:30:53;18.40;99.90
22471;DHT22;11402;51.374;6.594;2022-08-19T05:33:21;18.40;99.90
22471;DHT22;11402;51.374;6.594;2022-08-19T05:35:47;18.20;99.90
22471;DHT22;11402;51.374;6.594;2022-08-19T05:38:15;18.10;99.90
22471;DHT22;11402;51.374;6.594;2022-08-19T05:40:41;18.10;99.90
22471;DHT22;11402;51.374;6.594;2022-08-19T05:43:08;18.10;99.90
22471;DHT22;11402;51.374;6.594;2022-08-19T05:45:40;18.10;99.90
22471;DHT22;11402;51.374;6.594;2022-08-19T05:48:05;18.30;99.90
22471;DHT22;11402;51.374;6.594;2022-08-19T05:50:31;18.30;99.90
22471;DHT22;11402;51.374;6.594;2022-08-19T05:52:56;18.30;99.90
22471;DHT22;11402;51.374;6.594;2022-08-19T05:55:22;18.30;99.90
22471;DHT22;11402;51.374;6.594;2022-08-19T05:57:49;18.30;99.90
22471;DHT22;11402;51.374;6.594;2022-08-19T06:00:15;18.70;99.90
22471;DHT22;11402;51.374;6.594;2022-08-19T06:02:41;18.50;99.90
22471;DHT22;11402;51.374;6.594;2022-08-19T06:05:07;18.50;99.90
22471;DHT22;11402;51.374;6.594;2022-08-19T06:07:36;18.40;99.90
22471;DHT22;11402;51.374;6.594;2022-08-19T06:10:04;18.60;99.90
22471;DHT22;11402;51.374;6.594;2022-08-19T06:12:33;18.90;99.90
22471;DHT22;11402;51.374;6.594;2022-08-19T06:15:02;19.20;99.90
22471;DHT22;11402;51.374;6.594;2022-08-19T06:17:29;19.20;99.90
22471;DHT22;11402;51.374;6.594;2022-08-19T06:19:56;19.20;99.90
22471;DHT22;11402;51.374;6.594;2022-08-19T06:22:22;19.10;99.90
22471;DHT22;11402;51.374;6.594;2022-08-19T06:24:47;19.30;99.90
22471;DHT22;11402;51.374;6.594;2022-08-19T06:27:13;19.20;99.90
22471;DHT22;11402;51.374;6.594;2022-08-19T06:29:39;19.30;99.90
22471;DHT22;11402;51.374;6.594;2022-08-19T06:32:05;19.20;99.90
22471;DHT22;11402;51.374;6.594;2022-08-19T06:34:32;19.20;99.90
22471;DHT22;11402;51.374;6.594;2022-08-19T06:36:59;19.40;99.90
22471;DHT22;11402;51.374;6.594;2022-08-19T06:39:36;19.70;99.90
22471;DHT22;11402;51.374;6.594;2022-08-19T06:42:05;19.70;99.90
22471;DHT22;11402;51.374;6.594;2022-08-19T06:44:34;20.00;99.90
22471;DHT22;11402;51.374;6.594;2022-08-19T06:47:06;20.10;99.90
22471;DHT22;11402;51.374;6.594;2022-08-19T06:49:32;20.30;99.90
22471;DHT22;11402;51.374;6.594;2022-08-19T06:51:59;20.50;99.90
22471;DHT22;11402;51.374;6.594;2022-08-19T06:54:26;20.60;99.90
22471;DHT22;11402;51.374;6.594;2022-08-19T06:56:51;20.60;99.90
22471;DHT22;11402;51.374;6.594;2022-08-19T06:59:20;20.60;99.90
22471;DHT22;11402;51.374;6.594;2022-08-19T07:01:49;20.70;99.90
22471;DHT22;11402;51.374;6.594;2022-08-19T07:04:18;20.70;99.90
22471;DHT22;11402;51.374;6.594;2022-08-19T07:06:44;20.70;99.90
22471;DHT22;11402;51.374;6.594;2022-08-19T07:09:13;20.80;99.90
22471;DHT22;11402;51.374;6.594;2022-08-19T07:11:42;20.70;99.90
22471;DHT22;11402;51.374;6.594;2022-08-19T07:14:08;20.80;99.90
22471;DHT22;11402;51.374;6.594;2022-08-19T07:16:34;20.80;99.90
22471;DHT22;11402;51.374;6.594;2022-08-19T07:19:00;20.90;99.90
22471;DHT22;11402;51.374;6.594;2022-08-19T07:21:27;21.10;99.90
22471;DHT22;11402;51.374;6.594;2022-08-19T07:23:54;21.00;99.90
22471;DHT22;11402;51.374;6.594;2022-08-19T07:26:24;21.00;99.90
22471;DHT22;11402;51.374;6.594;2022-08-19T07:28:50;20.90;99.90
22471;DHT22;11402;51.374;6.594;2022-08-19T07:31:19;21.00;99.90
22471;DHT22;11402;51.374;6.594;2022-08-19T07:33:46;21.20;99.90
22471;DHT22;11402;51.374;6.594;2022-08-19T07:36:15;21.30;99.90
22471;DHT22;11402;51.374;6.594;2022-08-19T07:38:43;21.40;99.90
22471;DHT22;11402;51.374;6.594;2022-08-19T07:41:11;21.50;99.90
22471;DHT22;11402;51.374;6.594;2022-08-19T07:43:38;21.70;99.90
22471;DHT22;11402;51.374;6.594;2022-08-19T07:46:04;21.90;99.90
22471;DHT22;11402;51.374;6.594;2022-08-19T07:48:30;21.70;99.90
22471;DHT22;11402;51.374;6.594;2022-08-19T07:51:00;21.60;99.90
22471;DHT22;11402;51.374;6.594;2022-08-19T07:53:30;21.60;99.90
22471;DHT22;11402;51.374;6.594;2022-08-19T07:55:56;21.60;99.90
22471;DHT22;11402;51.374;6.594;2022-08-19T07:58:25;21.60;99.90
22471;DHT22;11402;51.374;6.594;2022-08-19T08:00:51;21.60;99.90
22471;DHT22;11402;51.374;6.594;2022-08-19T08:03:18;21.80;99.90
22471;DHT22;11402;51.374;6.594;2022-08-19T08:05:45;21.90;99.90
22471;DHT22;11402;51.374;6.594;2022-08-19T08:08:29;22.00;99.90
22471;DHT22;11402;51.374;6.594;2022-08-19T08:11:00;22.00;99.90
22471;DHT22;11402;51.374;6.594;2022-08-19T08:13:27;22.10;99.90
22471;DHT22;11402;51.374;6.594;2022-08-19T08:15:53;22.10;99.90
22471;DHT22;11402;51.374;6.594;2022-08-19T08:18:18;22.10;99.90
22471;DHT22;11402;51.374;6.594;2022-08-19T08:20:46;22.00;99.90
22471;DHT22;11402;51.374;6.594;2022-08-19T08:23:11;22.00;99.90
22471;DHT22;11402;51.374;6.594;2022-08-19T08:25:55;22.00;99.90
22471;DHT22;11402;51.374;6.594;2022-08-19T08:28:22;22.10;99.90
22471;DHT22;11402;51.374;6.594;2022-08-19T08:30:49;22.30;99.90
22471;DHT22;11402;51.374;6.594;2022-08-19T08:33:22;22.20;99.90
22471;DHT22;11402;51.374;6.594;2022-08-19T08:35:48;22.40;99.90
22471;DHT22;11402;51.374;6.594;2022-08-19T08:38:15;22.60;99.90
22471;DHT22;11402;51.374;6.594;2022-08-19T08:41:00;22.60;99.90
22471;DHT22;11402;51.374;6.594;2022-08-19T08:43:39;22.70;99.90
22471;DHT22;11402;51.374;6.594;2022-08-19T08:51:37;23.00;99.90
22471;DHT22;11402;51.374;6.594;2022-08-19T08:54:12;23.10;99.90
22471;DHT22;11402;51.374;6.594;2022-08-19T08:56:40;22.40;99.90
22471;DHT22;11402;51.374;6.594;2022-08-19T08:59:21;23.00;99.90
22471;DHT22;11402;51.374;6.594;2022-08-19T09:01:49;23.10;99.90
22471;DHT22;11402;51.374;6.594;2022-08-19T09:04:15;23.20;99.90
22471;DHT22;11402;51.374;6.594;2022-08-19T09:09:27;23.30;99.90
22471;DHT22;11402;51.374;6.594;2022-08-19T09:14:48;23.30;99.90
22471;DHT22;11402;51.374;6.594;2022-08-19T09:17:15;23.40;99.90
22471;DHT22;11402;51.374;6.594;2022-08-19T09:22:30;23.20;99.90
22471;DHT22;11402;51.374;6.594;2022-08-19T09:24:56;23.30;99.90
22471;DHT22;11402;51.374;6.594;2022-08-19T09:27:22;23.10;99.90
22471;DHT22;11402;51.374;6.594;2022-08-19T09:29:49;23.20;99.90
22471;DHT22;11402;51.374;6.594;2022-08-19T09:32:15;23.30;99.90
22471;DHT22;11402;51.374;6.594;2022-08-19T09:34:42;23.40;99.90
22471;DHT22;11402;51.374;6.594;2022-08-19T09:37:08;23.40;99.90
22471;DHT22;11402;51.374;6.594;2022-08-19T09:39:34;23.30;99.90
22471;DHT22;11402;51.374;6.594;2022-08-19T09:41:59;23.20;99.90
22471;DHT22;11402;51.374;6.594;2022-08-19T09:44:25;23.30;99.90
22471;DHT22;11402;51.374;6.594;2022-08-19T09:46:51;23.50;99.90
22471;DHT22;11402;51.374;6.594;2022-08-19T09:49:18;23.70;99.90
22471;DHT22;11402;51.374;6.594;2022-08-19T09:51:44;23.70;99.90
22471;DHT22;11402;51.374;6.594;2022-08-19T09:54:10;23.80;99.90
22471;DHT22;11402;51.374;6.594;2022-08-19T09:56:36;23.90;99.90
22471;DHT22;11402;51.374;6.594;2022-08-19T09:59:02;24.00;99.90
22471;DHT22;11402;51.374;6.594;2022-08-19T10:01:32;24.00;99.90
22471;DHT22;11402;51.374;6.594;2022-08-19T10:03:59;24.00;99.90
22471;DHT22;11402;51.374;6.594;2022-08-19T10:06:27;23.90;99.90
22471;DHT22;11402;51.374;6.594;2022-08-19T10:08:56;23.90;99.90
22471;DHT22;11402;51.374;6.594;2022-08-19T10:11:22;24.00;99.90
22471;DHT22;11402;51.374;6.594;2022-08-19T10:13:48;24.10;99.90
22471;DHT22;11402;51.374;6.594;2022-08-19T10:16:17;24.20;99.90
22471;DHT22;11402;51.374;6.594;2022-08-19T10:18:45;24.20;99.90
22471;DHT22;11402;51.374;6.594;2022-08-19T10:21:16;24.30;99.90
22471;DHT22;11402;51.374;6.594;2022-08-19T10:23:44;24.30;99.90
22471;DHT22;11402;51.374;6.594;2022-08-19T10:26:19;24.30;99.90
22471;DHT22;11402;51.374;6.594;2022-08-19T10:28:45;24.40;99.90
22471;DHT22;11402;51.374;6.594;2022-08-19T10:31:13;24.30;99.90
22471;DHT22;11402;51.374;6.594;2022-08-19T10:33:40;24.50;99.90
22471;DHT22;11402;51.374;6.594;2022-08-19T10:36:17;24.50;99.90
22471;DHT22;11402;51.374;6.594;2022-08-19T10:38:45;24.50;99.90
22471;DHT22;11402;51.374;6.594;2022-08-19T10:41:13;24.60;99.90
22471;DHT22;11402;51.374;6.594;2022-08-19T10:43:40;24.50;99.90
22471;DHT22;11402;51.374;6.594;2022-08-19T10:46:14;24.50;99.90
22471;DHT22;11402;51.374;6.594;2022-08-19T10:48:41;24.50;99.90
22471;DHT22;11402;51.374;6.594;2022-08-19T10:51:07;24.70;99.90
22471;DHT22;11402;51.374;6.594;2022-08-19T10:53:52;24.80;99.90
22471;DHT22;11402;51.374;6.594;2022-08-19T10:56:18;24.80;99.90
22471;DHT22;11402;51.374;6.594;2022-08-19T10:59:04;24.60;99.90
22471;DHT22;11402;51.374;6.594;2022-08-19T11:01:31;24.50;99.90
22471;DHT22;11402;51.374;6.594;2022-08-19T11:03:59;24.50;99.90
22471;DHT22;11402;51.374;6.594;2022-08-19T11:06:25;24.50;99.90
22471;DHT22;11402;51.374;6.594;2022-08-19T11:08:52;24.50;99.90
22471;DHT22;11402;51.374;6.594;2022-08-19T11:11:21;24.60;99.90
22471;DHT22;11402;51.374;6.594;2022-08-19T11:13:48;24.60;99.90
22471;DHT22;11402;51.374;6.594;2022-08-19T11:16:23;24.60;99.90
22471;DHT22;11402;51.374;6.594;2022-08-19T11:18:53;24.70;99.90
22471;DHT22;11402;51.374;6.594;2022-08-19T11:21:22;24.80;99.90
22471;DHT22;11402;51.374;6.594;2022-08-19T11:23:51;25.00;99.90
22471;DHT22;11402;51.374;6.594;2022-08-19T11:26:18;25.10;99.90
22471;DHT22;11402;51.374;6.594;2022-08-19T11:28:44;25.10;99.90
22471;DHT22;11402;51.374;6.594;2022-08-19T11:31:14;25.10;99.90
22471;DHT22;11402;51.374;6.594;2022-08-19T11:33:40;25.10;99.90
22471;DHT22;11402;51.374;6.594;2022-08-19T11:36:06;25.00;99.90
22471;DHT22;11402;51.374;6.594;2022-08-19T11:38:33;25.10;99.90
22471;DHT22;11402;51.374;6.594;2022-08-19T11:41:04;24.90;99.90
22471;DHT22;11402;51.374;6.594;2022-08-19T11:43:30;24.80;99.90
22471;DHT22;11402;51.374;6.594;2022-08-19T11:45:56;25.00;99.90
22471;DHT22;11402;51.374;6.594;2022-08-19T11:48:23;25.00;99.90
22471;DHT22;11402;51.374;6.594;2022-08-19T11:50:50;25.00;99.90
22471;DHT22;11402;51.374;6.594;2022-08-19T11:53:17;25.00;99.90
22471;DHT22;11402;51.374;6.594;2022-08-19T11:55:46;25.10;99.90
22471;DHT22;11402;51.374;6.594;2022-08-19T11:58:13;25.10;99.90
22471;DHT22;11402;51.374;6.594;2022-08-19T12:00:40;25.10;99.90
22471;DHT22;11402;51.374;6.594;2022-08-19T12:03:06;24.90;99.90
22471;DHT22;11402;51.374;6.594;2022-08-19T12:05:32;24.80;99.90
22471;DHT22;11402;51.374;6.594;2022-08-19T12:07:57;25.00;99.90
22471;DHT22;11402;51.374;6.594;2022-08-19T12:10:23;25.00;99.90
22471;DHT22;11402;51.374;6.594;2022-08-19T12:12:50;25.20;99.90
22471;DHT22;11402;51.374;6.594;2022-08-19T12:15:16;25.30;99.90
22471;DHT22;11402;51.374;6.594;2022-08-19T12:17:42;25.30;99.90
22471;DHT22;11402;51.374;6.594;2022-08-19T12:20:09;25.40;99.90
22471;DHT22;11402;51.374;6.594;2022-08-19T12:22:36;25.40;99.90
22471;DHT22;11402;51.374;6.594;2022-08-19T12:25:04;25.60;99.90
22471;DHT22;11402;51.374;6.594;2022-08-19T12:27:30;25.40;99.90
22471;DHT22;11402;51.374;6.594;2022-08-19T12:29:55;25.50;99.90
22471;DHT22;11402;51.374;6.594;2022-08-19T12:32:21;25.50;99.90
22471;DHT22;11402;51.374;6.594;2022-08-19T12:34:46;25.40;99.90
22471;DHT22;11402;51.374;6.594;2022-08-19T12:37:13;25.40;99.90
22471;DHT22;11402;51.374;6.594;2022-08-19T12:39:41;25.50;99.90
22471;DHT22;11402;51.374;6.594;2022-08-19T12:42:08;25.60;99.90
22471;DHT22;11402;51.374;6.594;2022-08-19T12:44:34;25.70;99.90
22471;DHT22;11402;51.374;6.594;2022-08-19T12:47:00;25.80;99.90
22471;DHT22;11402;51.374;6.594;2022-08-19T12:49:28;25.80;99.90
22471;DHT22;11402;51.374;6.594;2022-08-19T12:51:54;25.90;99.90
22471;DHT22;11402;51.374;6.594;2022-08-19T12:54:20;25.70;99.90
22471;DHT22;11402;51.374;6.594;2022-08-19T12:56:45;25.70;99.90
22471;DHT22;11402;51.374;6.594;2022-08-19T12:59:11;25.80;99.90
22471;DHT22;11402;51.374;6.594;2022-08-19T13:01:40;25.80;99.90
22471;DHT22;11402;51.374;6.594;2022-08-19T13:04:06;25.70;99.90
22471;DHT22;11402;51.374;6.594;2022-08-19T13:06:32;25.50;99.90
22471;DHT22;11402;51.374;6.594;2022-08-19T13:08:57;25.50;99.90
22471;DHT22;11402;51.374;6.594;2022-08-19T13:11:23;25.40;99.90
22471;DHT22;11402;51.374;6.594;2022-08-19T13:13:51;25.60;99.90
22471;DHT22;11402;51.374;6.594;2022-08-19T13:16:18;25.70;99.90
22471;DHT22;11402;51.374;6.594;2022-08-19T13:18:46;25.80;99.90
22471;DHT22;11402;51.374;6.594;2022-08-19T13:21:13;25.90;99.90
22471;DHT22;11402;51.374;6.594;2022-08-19T13:23:40;25.90;99.90
22471;DHT22;11402;51.374;6.594;2022-08-19T13:26:07;26.00;99.90
22471;DHT22;11402;51.374;6.594;2022-08-19T13:28:34;26.00;99.90
22471;DHT22;11402;51.374;6.594;2022-08-19T13:31:21;26.00;99.90
22471;DHT22;11402;51.374;6.594;2022-08-19T13:34:06;26.10;99.90
22471;DHT22;11402;51.374;6.594;2022-08-19T13:36:33;25.90;99.90
22471;DHT22;11402;51.374;6.594;2022-08-19T13:38:59;25.70;99.90
22471;DHT22;11402;51.374;6.594;2022-08-19T13:41:26;25.60;99.90
22471;DHT22;11402;51.374;6.594;2022-08-19T13:43:52;25.60;99.90
22471;DHT22;11402;51.374;6.594;2022-08-19T13:46:18;25.70;99.90
22471;DHT22;11402;51.374;6.594;2022-08-19T13:48:45;25.70;99.90
22471;DHT22;11402;51.374;6.594;2022-08-19T13:51:11;25.70;99.90
22471;DHT22;11402;51.374;6.594;2022-08-19T13:53:38;25.70;99.90
22471;DHT22;11402;51.374;6.594;2022-08-19T13:56:09;25.90;99.90
22471;DHT22;11402;51.374;6.594;2022-08-19T13:58:36;25.70;99.90
22471;DHT22;11402;51.374;6.594;2022-08-19T14:01:02;25.50;99.90
22471;DHT22;11402;51.374;6.594;2022-08-19T14:03:28;25.60;99.90
22471;DHT22;11402;51.374;6.594;2022-08-19T14:05:53;25.60;99.90
22471;DHT22;11402;51.374;6.594;2022-08-19T14:08:19;25.60;99.90
22471;DHT22;11402;51.374;6.594;2022-08-19T14:10:45;25.60;99.90
22471;DHT22;11402;51.374;6.594;2022-08-19T14:13:15;25.50;99.90
22471;DHT22;11402;51.374;6.594;2022-08-19T14:15:41;25.50;99.90
22471;DHT22;11402;51.374;6.594;2022-08-19T14:18:07;25.50;99.90
22471;DHT22;11402;51.374;6.594;2022-08-19T14:20:36;25.70;99.90
22471;DHT22;11402;51.374;6.594;2022-08-19T14:23:02;25.50;99.90
22471;DHT22;11402;51.374;6.594;2022-08-19T14:25:31;25.60;99.90
22471;DHT22;11402;51.374;6.594;2022-08-19T14:27:57;25.50;99.90
22471;DHT22;11402;51.374;6.594;2022-08-19T14:30:26;25.50;99.90
22471;DHT22;11402;51.374;6.594;2022-08-19T14:32:53;25.60;99.90
22471;DHT22;11402;51.374;6.594;2022-08-19T14:35:20;25.60;99.90
22471;DHT22;11402;51.374;6.594;2022-08-19T14:37:48;25.60;99.90
22471;DHT22;11402;51.374;6.594;2022-08-19T14:40:17;25.50;99.90
22471;DHT22;11402;51.374;6.594;2022-08-19T14:42:43;25.50;99.90
22471;DHT22;11402;51.374;6.594;2022-08-19T14:45:10;25.50;99.90
22471;DHT22;11402;51.374;6.594;2022-08-19T14:47:35;25.50;99.90
22471;DHT22;11402;51.374;6.594;2022-08-19T14:50:01;25.40;99.90
22471;DHT22;11402;51.374;6.594;2022-08-19T14:52:27;25.50;99.90
22471;DHT22;11402;51.374;6.594;2022-08-19T14:54:53;25.40;99.90
22471;DHT22;11402;51.374;6.594;2022-08-19T14:57:18;25.40;99.90
22471;DHT22;11402;51.374;6.594;2022-08-19T14:59:44;25.50;99.90
22471;DHT22;11402;51.374;6.594;2022-08-19T15:02:10;25.50;99.90
22471;DHT22;11402;51.374;6.594;2022-08-19T15:04:37;25.50;99.90
22471;DHT22;11402;51.374;6.594;2022-08-19T15:07:03;25.50;99.90
22471;DHT22;11402;51.374;6.594;2022-08-19T15:09:30;25.50;99.90
22471;DHT22;11402;51.374;6.594;2022-08-19T15:11:56;25.50;99.90
22471;DHT22;11402;51.374;6.594;2022-08-19T15:14:24;25.40;99.90
22471;DHT22;11402;51.374;6.594;2022-08-19T15:16:49;25.40;99.90
22471;DHT22;11402;51.374;6.594;2022-08-19T15:19:15;25.40;99.90
22471;DHT22;11402;51.374;6.594;2022-08-19T15:21:41;25.50;99.90
22471;DHT22;11402;51.374;6.594;2022-08-19T15:24:06;25.50;99.90
22471;DHT22;11402;51.374;6.594;2022-08-19T15:26:32;25.60;99.90
22471;DHT22;11402;51.374;6.594;2022-08-19T15:28:59;25.50;99.90
22471;DHT22;11402;51.374;6.594;2022-08-19T15:31:25;25.50;99.90
22471;DHT22;11402;51.374;6.594;2022-08-19T15:33:52;25.60;99.90
22471;DHT22;11402;51.374;6.594;2022-08-19T15:36:18;25.50;99.90
22471;DHT22;11402;51.374;6.594;2022-08-19T15:38:43;25.50;99.90
22471;DHT22;11402;51.374;6.594;2022-08-19T15:41:19;25.40;99.90
22471;DHT22;11402;51.374;6.594;2022-08-19T15:44:10;25.50;99.90
22471;DHT22;11402;51.374;6.594;2022-08-19T15:46:37;25.40;99.90
22471;DHT22;11402;51.374;6.594;2022-08-19T15:49:04;25.60;99.90